sensor_id;sensor_type;location;lat;lon;timestamp;P1;durP1;ratioP1;P2;durP2;ratioP2
20623;SDS011;10471;42.736;23.346;2022-07-29T00:01:24;21.43;;;18.87;;
20623;SDS011;10471;42.736;23.346;2022-07-29T00:03:49;24.93;;;18.87;;
20623;SDS011;10471;42.736;23.346;2022-07-29T00:06:15;22.80;;;18.87;;
20623;SDS011;10471;42.736;23.346;2022-07-29T00:08:41;23.13;;;19.30;;
20623;SDS011;10471;42.736;23.346;2022-07-29T00:11:06;29.67;;;22.03;;
20623;SDS011;10471;42.736;23.346;2022-07-29T00:13:32;28.03;;;21.33;;
20623;SDS011;10471;42.736;23.346;2022-07-29T00:15:57;27.37;;;21.83;;
20623;SDS011;10471;42.736;23.346;2022-07-29T00:18:23;28.87;;;22.17;;
20623;SDS011;10471;42.736;23.346;2022-07-29T00:20:48;28.20;;;21.77;;
20623;SDS011;10471;42.736;23.346;2022-07-29T00:23:14;28.60;;;21.90;;
20623;SDS011;10471;42.736;23.346;2022-07-29T00:25:39;30.83;;;22.27;;
20623;SDS011;10471;42.736;23.346;2022-07-29T00:28:04;27.43;;;21.93;;
20623;SDS011;10471;42.736;23.346;2022-07-29T00:30:30;25.50;;;22.20;;
20623;SDS011;10471;42.736;23.346;2022-07-29T00:32:56;29.73;;;23.13;;
20623;SDS011;10471;42.736;23.346;2022-07-29T00:35:21;29.53;;;22.97;;
20623;SDS011;10471;42.736;23.346;2022-07-29T00:38:05;30.33;;;22.77;;
20623;SDS011;10471;42.736;23.346;2022-07-29T00:40:31;28.07;;;23.33;;
20623;SDS011;10471;42.736;23.346;2022-07-29T00:42:56;28.97;;;23.13;;
20623;SDS011;10471;42.736;23.346;2022-07-29T00:45:22;28.67;;;23.67;;
20623;SDS011;10471;42.736;23.346;2022-07-29T00:47:47;28.00;;;24.40;;
20623;SDS011;10471;42.736;23.346;2022-07-29T00:50:13;28.43;;;24.33;;
20623;SDS011;10471;42.736;23.346;2022-07-29T00:52:39;33.47;;;24.70;;
20623;SDS011;10471;42.736;23.346;2022-07-29T00:55:07;28.57;;;23.23;;
20623;SDS011;10471;42.736;23.346;2022-07-29T00:57:35;29.77;;;23.87;;
20623;SDS011;10471;42.736;23.346;2022-07-29T01:00:03;27.13;;;23.27;;
20623;SDS011;10471;42.736;23.346;2022-07-29T01:02:30;29.13;;;24.27;;
20623;SDS011;10471;42.736;23.346;2022-07-29T01:04:55;30.97;;;24.07;;
20623;SDS011;10471;42.736;23.346;2022-07-29T01:07:22;29.13;;;22.70;;
20623;SDS011;10471;42.736;23.346;2022-07-29T01:09:49;26.73;;;22.87;;
20623;SDS011;10471;42.736;23.346;2022-07-29T01:12:19;27.77;;;23.27;;
20623;SDS011;10471;42.736;23.346;2022-07-29T01:14:48;26.90;;;22.27;;
20623;SDS011;10471;42.736;23.346;2022-07-29T01:20:43;25.97;;;23.00;;
20623;SDS011;10471;42.736;23.346;2022-07-29T01:32:18;25.67;;;21.83;;
20623;SDS011;10471;42.736;23.346;2022-07-29T01:37:19;27.77;;;21.37;;
20623;SDS011;10471;42.736;23.346;2022-07-29T01:39:51;24.67;;;22.00;;
20623;SDS011;10471;42.736;23.346;2022-07-29T01:45:12;29.13;;;23.67;;
20623;SDS011;10471;42.736;23.346;2022-07-29T01:47:43;29.70;;;23.33;;
20623;SDS011;10471;42.736;23.346;2022-07-29T01:50:23;28.70;;;23.83;;
20623;SDS011;10471;42.736;23.346;2022-07-29T01:52:58;27.60;;;22.63;;
20623;SDS011;10471;42.736;23.346;2022-07-29T01:55:29;27.00;;;24.00;;
20623;SDS011;10471;42.736;23.346;2022-07-29T01:57:59;28.17;;;23.50;;
20623;SDS011;10471;42.736;23.346;2022-07-29T02:00:26;27.83;;;23.33;;
20623;SDS011;10471;42.736;23.346;2022-07-29T02:02:53;35.47;;;27.10;;
20623;SDS011;10471;42.736;23.346;2022-07-29T02:05:20;35.70;;;26.53;;
20623;SDS011;10471;42.736;23.346;2022-07-29T02:07:48;37.53;;;28.63;;
20623;SDS011;10471;42.736;23.346;2022-07-29T02:10:15;39.70;;;30.57;;
20623;SDS011;10471;42.736;23.346;2022-07-29T02:12:43;43.23;;;31.37;;
20623;SDS011;10471;42.736;23.346;2022-07-29T02:15:11;41.57;;;30.83;;
20623;SDS011;10471;42.736;23.346;2022-07-29T02:17:42;40.93;;;30.00;;
20623;SDS011;10471;42.736;23.346;2022-07-29T02:20:11;40.30;;;30.20;;
20623;SDS011;10471;42.736;23.346;2022-07-29T02:22:38;37.13;;;28.40;;
20623;SDS011;10471;42.736;23.346;2022-07-29T02:25:05;35.53;;;28.20;;
20623;SDS011;10471;42.736;23.346;2022-07-29T02:27:33;32.87;;;27.67;;
20623;SDS011;10471;42.736;23.346;2022-07-29T02:30:00;37.37;;;27.67;;
20623;SDS011;10471;42.736;23.346;2022-07-29T02:32:27;37.23;;;28.70;;
20623;SDS011;10471;42.736;23.346;2022-07-29T02:34:54;37.60;;;28.00;;
20623;SDS011;10471;42.736;23.346;2022-07-29T02:37:21;31.93;;;26.10;;
20623;SDS011;10471;42.736;23.346;2022-07-29T02:39:47;34.63;;;28.70;;
20623;SDS011;10471;42.736;23.346;2022-07-29T02:42:15;38.50;;;29.53;;
20623;SDS011;10471;42.736;23.346;2022-07-29T02:44:42;34.47;;;28.87;;
20623;SDS011;10471;42.736;23.346;2022-07-29T02:47:27;40.90;;;30.60;;
20623;SDS011;10471;42.736;23.346;2022-07-29T02:50:20;34.63;;;27.90;;
20623;SDS011;10471;42.736;23.346;2022-07-29T02:55:33;32.53;;;27.13;;
20623;SDS011;10471;42.736;23.346;2022-07-29T02:58:38;33.87;;;28.10;;
20623;SDS011;10471;42.736;23.346;2022-07-29T03:00:56;30.60;;;25.23;;
20623;SDS011;10471;42.736;23.346;2022-07-29T03:03:25;35.60;;;27.13;;
20623;SDS011;10471;42.736;23.346;2022-07-29T03:05:57;29.33;;;25.03;;
20623;SDS011;10471;42.736;23.346;2022-07-29T03:08:26;37.57;;;27.13;;
20623;SDS011;10471;42.736;23.346;2022-07-29T03:10:52;33.63;;;28.03;;
20623;SDS011;10471;42.736;23.346;2022-07-29T03:13:18;35.07;;;27.50;;
20623;SDS011;10471;42.736;23.346;2022-07-29T03:15:44;40.47;;;26.83;;
20623;SDS011;10471;42.736;23.346;2022-07-29T03:18:12;33.67;;;27.70;;
20623;SDS011;10471;42.736;23.346;2022-07-29T03:20:38;32.67;;;28.20;;
20623;SDS011;10471;42.736;23.346;2022-07-29T03:23:04;32.67;;;26.43;;
20623;SDS011;10471;42.736;23.346;2022-07-29T03:25:30;32.07;;;26.70;;
20623;SDS011;10471;42.736;23.346;2022-07-29T03:27:56;32.03;;;26.57;;
20623;SDS011;10471;42.736;23.346;2022-07-29T03:30:22;33.30;;;27.40;;
20623;SDS011;10471;42.736;23.346;2022-07-29T03:32:48;31.40;;;25.47;;
20623;SDS011;10471;42.736;23.346;2022-07-29T03:35:14;30.93;;;25.47;;
20623;SDS011;10471;42.736;23.346;2022-07-29T03:37:41;30.97;;;25.83;;
20623;SDS011;10471;42.736;23.346;2022-07-29T03:40:07;31.93;;;25.30;;
20623;SDS011;10471;42.736;23.346;2022-07-29T03:42:37;28.23;;;24.73;;
20623;SDS011;10471;42.736;23.346;2022-07-29T03:45:08;31.10;;;25.70;;
20623;SDS011;10471;42.736;23.346;2022-07-29T03:47:43;28.17;;;24.30;;
20623;SDS011;10471;42.736;23.346;2022-07-29T03:50:12;33.03;;;26.83;;
20623;SDS011;10471;42.736;23.346;2022-07-29T03:52:39;27.10;;;24.10;;
20623;SDS011;10471;42.736;23.346;2022-07-29T03:55:05;27.87;;;24.20;;
20623;SDS011;10471;42.736;23.346;2022-07-29T03:57:32;32.53;;;24.60;;
20623;SDS011;10471;42.736;23.346;2022-07-29T03:59:59;29.10;;;24.30;;
20623;SDS011;10471;42.736;23.346;2022-07-29T04:02:27;30.43;;;24.80;;
20623;SDS011;10471;42.736;23.346;2022-07-29T04:04:52;27.60;;;24.00;;
20623;SDS011;10471;42.736;23.346;2022-07-29T04:07:18;30.63;;;24.07;;
20623;SDS011;10471;42.736;23.346;2022-07-29T04:09:43;28.47;;;23.23;;
20623;SDS011;10471;42.736;23.346;2022-07-29T04:12:09;42.13;;;30.77;;
20623;SDS011;10471;42.736;23.346;2022-07-29T04:14:35;39.10;;;28.27;;
20623;SDS011;10471;42.736;23.346;2022-07-29T04:17:01;32.53;;;25.17;;
20623;SDS011;10471;42.736;23.346;2022-07-29T04:19:27;35.33;;;25.13;;
20623;SDS011;10471;42.736;23.346;2022-07-29T04:21:52;32.23;;;25.23;;
20623;SDS011;10471;42.736;23.346;2022-07-29T04:24:18;32.03;;;24.23;;
20623;SDS011;10471;42.736;23.346;2022-07-29T04:26:45;27.37;;;23.17;;
20623;SDS011;10471;42.736;23.346;2022-07-29T04:29:11;30.17;;;24.13;;
20623;SDS011;10471;42.736;23.346;2022-07-29T04:31:37;28.30;;;24.20;;
20623;SDS011;10471;42.736;23.346;2022-07-29T04:34:02;28.17;;;23.40;;
20623;SDS011;10471;42.736;23.346;2022-07-29T04:36:28;25.00;;;20.37;;
20623;SDS011;10471;42.736;23.346;2022-07-29T04:38:53;25.10;;;20.80;;
20623;SDS011;10471;42.736;23.346;2022-07-29T04:41:19;22.97;;;18.83;;
20623;SDS011;10471;42.736;23.346;2022-07-29T04:43:44;21.30;;;18.80;;
20623;SDS011;10471;42.736;23.346;2022-07-29T04:46:09;24.20;;;17.87;;
20623;SDS011;10471;42.736;23.346;2022-07-29T04:48:35;20.33;;;17.50;;
20623;SDS011;10471;42.736;23.346;2022-07-29T04:51:00;21.27;;;18.00;;
20623;SDS011;10471;42.736;23.346;2022-07-29T04:53:25;19.23;;;17.10;;
20623;SDS011;10471;42.736;23.346;2022-07-29T04:55:51;18.97;;;16.63;;
20623;SDS011;10471;42.736;23.346;2022-07-29T04:58:16;17.70;;;15.80;;
20623;SDS011;10471;42.736;23.346;2022-07-29T05:00:42;19.30;;;16.53;;
20623;SDS011;10471;42.736;23.346;2022-07-29T05:03:08;21.03;;;16.73;;
20623;SDS011;10471;42.736;23.346;2022-07-29T05:05:33;16.93;;;14.13;;
20623;SDS011;10471;42.736;23.346;2022-07-29T05:07:59;16.90;;;14.97;;
20623;SDS011;10471;42.736;23.346;2022-07-29T05:10:24;16.23;;;14.10;;
20623;SDS011;10471;42.736;23.346;2022-07-29T05:12:50;18.13;;;14.53;;
20623;SDS011;10471;42.736;23.346;2022-07-29T05:15:15;17.93;;;14.00;;
20623;SDS011;10471;42.736;23.346;2022-07-29T05:17:42;16.70;;;13.63;;
20623;SDS011;10471;42.736;23.346;2022-07-29T05:20:08;18.07;;;14.83;;
20623;SDS011;10471;42.736;23.346;2022-07-29T05:22:33;18.07;;;14.77;;
20623;SDS011;10471;42.736;23.346;2022-07-29T05:24:59;14.60;;;12.93;;
20623;SDS011;10471;42.736;23.346;2022-07-29T05:27:24;14.77;;;13.20;;
20623;SDS011;10471;42.736;23.346;2022-07-29T05:29:49;13.63;;;11.80;;
20623;SDS011;10471;42.736;23.346;2022-07-29T05:32:15;13.83;;;12.30;;
20623;SDS011;10471;42.736;23.346;2022-07-29T05:34:40;15.67;;;11.93;;
20623;SDS011;10471;42.736;23.346;2022-07-29T05:37:06;16.57;;;12.60;;
20623;SDS011;10471;42.736;23.346;2022-07-29T05:39:32;14.27;;;12.73;;
20623;SDS011;10471;42.736;23.346;2022-07-29T05:41:57;16.67;;;14.80;;
20623;SDS011;10471;42.736;23.346;2022-07-29T05:44:23;16.87;;;14.87;;
20623;SDS011;10471;42.736;23.346;2022-07-29T05:46:48;14.13;;;11.07;;
20623;SDS011;10471;42.736;23.346;2022-07-29T05:49:13;11.30;;;10.07;;
20623;SDS011;10471;42.736;23.346;2022-07-29T05:51:39;11.33;;;8.73;;
20623;SDS011;10471;42.736;23.346;2022-07-29T05:54:05;11.57;;;8.90;;
20623;SDS011;10471;42.736;23.346;2022-07-29T05:56:30;9.47;;;8.57;;
20623;SDS011;10471;42.736;23.346;2022-07-29T05:58:56;9.87;;;8.13;;
20623;SDS011;10471;42.736;23.346;2022-07-29T06:01:21;8.97;;;8.00;;
20623;SDS011;10471;42.736;23.346;2022-07-29T06:03:46;9.17;;;7.40;;
20623;SDS011;10471;42.736;23.346;2022-07-29T06:06:12;9.20;;;8.30;;
20623;SDS011;10471;42.736;23.346;2022-07-29T06:08:37;11.83;;;7.80;;
20623;SDS011;10471;42.736;23.346;2022-07-29T06:11:03;10.17;;;7.40;;
20623;SDS011;10471;42.736;23.346;2022-07-29T06:13:29;9.30;;;7.43;;
20623;SDS011;10471;42.736;23.346;2022-07-29T06:15:55;7.17;;;6.47;;
20623;SDS011;10471;42.736;23.346;2022-07-29T06:18:21;6.60;;;5.77;;
20623;SDS011;10471;42.736;23.346;2022-07-29T06:20:49;7.90;;;5.83;;
20623;SDS011;10471;42.736;23.346;2022-07-29T06:23:16;8.13;;;6.40;;
20623;SDS011;10471;42.736;23.346;2022-07-29T06:25:42;8.27;;;6.50;;
20623;SDS011;10471;42.736;23.346;2022-07-29T06:28:08;7.23;;;5.70;;
20623;SDS011;10471;42.736;23.346;2022-07-29T06:30:33;9.27;;;5.90;;
20623;SDS011;10471;42.736;23.346;2022-07-29T06:32:59;7.80;;;6.13;;
20623;SDS011;10471;42.736;23.346;2022-07-29T06:35:26;7.37;;;5.27;;
20623;SDS011;10471;42.736;23.346;2022-07-29T06:37:51;6.77;;;5.20;;
20623;SDS011;10471;42.736;23.346;2022-07-29T06:40:17;7.87;;;5.40;;
20623;SDS011;10471;42.736;23.346;2022-07-29T06:43:01;7.20;;;5.13;;
20623;SDS011;10471;42.736;23.346;2022-07-29T06:45:26;9.60;;;5.03;;
20623;SDS011;10471;42.736;23.346;2022-07-29T06:47:52;7.30;;;4.87;;
20623;SDS011;10471;42.736;23.346;2022-07-29T06:50:17;5.40;;;4.87;;
20623;SDS011;10471;42.736;23.346;2022-07-29T06:52:42;5.00;;;4.50;;
20623;SDS011;10471;42.736;23.346;2022-07-29T06:55:08;5.73;;;4.47;;
20623;SDS011;10471;42.736;23.346;2022-07-29T06:57:33;5.83;;;4.37;;
20623;SDS011;10471;42.736;23.346;2022-07-29T06:59:59;5.57;;;4.20;;
20623;SDS011;10471;42.736;23.346;2022-07-29T07:02:24;8.93;;;4.43;;
20623;SDS011;10471;42.736;23.346;2022-07-29T07:04:50;4.80;;;4.27;;
20623;SDS011;10471;42.736;23.346;2022-07-29T07:07:15;5.07;;;4.20;;
20623;SDS011;10471;42.736;23.346;2022-07-29T07:09:41;5.50;;;4.40;;
20623;SDS011;10471;42.736;23.346;2022-07-29T07:12:06;4.53;;;4.13;;
20623;SDS011;10471;42.736;23.346;2022-07-29T07:14:32;4.90;;;4.50;;
20623;SDS011;10471;42.736;23.346;2022-07-29T07:16:57;5.23;;;4.50;;
20623;SDS011;10471;42.736;23.346;2022-07-29T07:19:25;4.77;;;4.37;;
20623;SDS011;10471;42.736;23.346;2022-07-29T07:21:50;5.73;;;4.43;;
20623;SDS011;10471;42.736;23.346;2022-07-29T07:24:16;5.13;;;4.47;;
20623;SDS011;10471;42.736;23.346;2022-07-29T07:26:41;5.07;;;4.53;;
20623;SDS011;10471;42.736;23.346;2022-07-29T07:29:07;5.73;;;4.80;;
20623;SDS011;10471;42.736;23.346;2022-07-29T07:31:32;5.33;;;4.50;;
20623;SDS011;10471;42.736;23.346;2022-07-29T07:33:57;6.50;;;4.93;;
20623;SDS011;10471;42.736;23.346;2022-07-29T07:36:23;6.27;;;4.60;;
20623;SDS011;10471;42.736;23.346;2022-07-29T07:38:48;5.73;;;4.97;;
20623;SDS011;10471;42.736;23.346;2022-07-29T07:41:14;5.60;;;4.87;;
20623;SDS011;10471;42.736;23.346;2022-07-29T07:43:40;4.93;;;4.43;;
20623;SDS011;10471;42.736;23.346;2022-07-29T07:46:05;7.23;;;4.63;;
20623;SDS011;10471;42.736;23.346;2022-07-29T07:48:31;8.27;;;4.80;;
20623;SDS011;10471;42.736;23.346;2022-07-29T07:50:56;5.53;;;4.60;;
20623;SDS011;10471;42.736;23.346;2022-07-29T07:53:22;6.83;;;4.73;;
20623;SDS011;10471;42.736;23.346;2022-07-29T07:55:47;5.17;;;4.67;;
20623;SDS011;10471;42.736;23.346;2022-07-29T07:58:12;8.20;;;4.47;;
20623;SDS011;10471;42.736;23.346;2022-07-29T08:00:38;5.20;;;4.33;;
20623;SDS011;10471;42.736;23.346;2022-07-29T08:03:03;6.00;;;4.80;;
20623;SDS011;10471;42.736;23.346;2022-07-29T08:05:29;6.63;;;4.60;;
20623;SDS011;10471;42.736;23.346;2022-07-29T08:07:54;5.30;;;4.80;;
20623;SDS011;10471;42.736;23.346;2022-07-29T08:10:20;6.27;;;4.90;;
20623;SDS011;10471;42.736;23.346;2022-07-29T08:13:04;7.17;;;4.40;;
20623;SDS011;10471;42.736;23.346;2022-07-29T08:15:31;6.13;;;4.93;;
20623;SDS011;10471;42.736;23.346;2022-07-29T08:17:56;4.80;;;4.30;;
20623;SDS011;10471;42.736;23.346;2022-07-29T08:20:22;6.03;;;4.63;;
20623;SDS011;10471;42.736;23.346;2022-07-29T08:22:47;6.97;;;4.40;;
20623;SDS011;10471;42.736;23.346;2022-07-29T08:25:12;5.43;;;4.20;;
20623;SDS011;10471;42.736;23.346;2022-07-29T08:27:38;4.83;;;4.33;;
20623;SDS011;10471;42.736;23.346;2022-07-29T08:30:04;5.37;;;4.00;;
20623;SDS011;10471;42.736;23.346;2022-07-29T08:32:29;5.03;;;3.70;;
20623;SDS011;10471;42.736;23.346;2022-07-29T08:34:56;4.30;;;3.47;;
20623;SDS011;10471;42.736;23.346;2022-07-29T08:37:21;4.40;;;4.00;;
20623;SDS011;10471;42.736;23.346;2022-07-29T08:39:47;4.43;;;4.00;;
20623;SDS011;10471;42.736;23.346;2022-07-29T08:42:12;6.23;;;4.13;;
20623;SDS011;10471;42.736;23.346;2022-07-29T08:44:38;7.60;;;4.30;;
20623;SDS011;10471;42.736;23.346;2022-07-29T08:47:04;4.80;;;4.20;;
20623;SDS011;10471;42.736;23.346;2022-07-29T08:49:32;5.40;;;3.60;;
20623;SDS011;10471;42.736;23.346;2022-07-29T08:51:58;4.43;;;3.90;;
20623;SDS011;10471;42.736;23.346;2022-07-29T08:54:25;4.23;;;3.83;;
20623;SDS011;10471;42.736;23.346;2022-07-29T08:56:50;4.90;;;4.10;;
20623;SDS011;10471;42.736;23.346;2022-07-29T08:59:20;4.20;;;3.90;;
20623;SDS011;10471;42.736;23.346;2022-07-29T09:01:47;4.87;;;4.03;;
20623;SDS011;10471;42.736;23.346;2022-07-29T09:04:13;8.00;;;4.30;;
20623;SDS011;10471;42.736;23.346;2022-07-29T09:06:44;4.37;;;3.90;;
20623;SDS011;10471;42.736;23.346;2022-07-29T09:09:13;7.97;;;4.00;;
20623;SDS011;10471;42.736;23.346;2022-07-29T09:11:39;10.03;;;4.50;;
20623;SDS011;10471;42.736;23.346;2022-07-29T09:14:04;4.10;;;3.70;;
20623;SDS011;10471;42.736;23.346;2022-07-29T09:19:26;6.40;;;3.97;;
20623;SDS011;10471;42.736;23.346;2022-07-29T09:21:56;5.90;;;4.30;;
20623;SDS011;10471;42.736;23.346;2022-07-29T09:24:24;6.40;;;4.00;;
20623;SDS011;10471;42.736;23.346;2022-07-29T09:29:57;4.07;;;3.73;;
20623;SDS011;10471;42.736;23.346;2022-07-29T09:32:56;4.30;;;3.40;;
20623;SDS011;10471;42.736;23.346;2022-07-29T09:35:24;4.13;;;3.43;;
20623;SDS011;10471;42.736;23.346;2022-07-29T09:37:51;6.30;;;3.90;;
20623;SDS011;10471;42.736;23.346;2022-07-29T09:40:17;4.43;;;3.80;;
20623;SDS011;10471;42.736;23.346;2022-07-29T09:42:47;4.37;;;3.97;;
20623;SDS011;10471;42.736;23.346;2022-07-29T09:45:29;4.73;;;3.90;;
20623;SDS011;10471;42.736;23.346;2022-07-29T09:47:57;4.77;;;3.70;;
20623;SDS011;10471;42.736;23.346;2022-07-29T09:50:41;5.33;;;3.40;;
20623;SDS011;10471;42.736;23.346;2022-07-29T09:53:08;4.37;;;3.63;;
20623;SDS011;10471;42.736;23.346;2022-07-29T09:55:47;3.93;;;3.60;;
20623;SDS011;10471;42.736;23.346;2022-07-29T10:00:43;4.63;;;4.23;;
20623;SDS011;10471;42.736;23.346;2022-07-29T10:03:10;4.00;;;3.70;;
20623;SDS011;10471;42.736;23.346;2022-07-29T10:05:36;4.40;;;4.00;;
20623;SDS011;10471;42.736;23.346;2022-07-29T10:08:02;4.80;;;3.60;;
20623;SDS011;10471;42.736;23.346;2022-07-29T10:10:29;4.97;;;3.60;;
20623;SDS011;10471;42.736;23.346;2022-07-29T10:12:59;5.07;;;3.43;;
20623;SDS011;10471;42.736;23.346;2022-07-29T10:15:27;4.07;;;3.50;;
20623;SDS011;10471;42.736;23.346;2022-07-29T10:17:57;3.97;;;3.47;;
20623;SDS011;10471;42.736;23.346;2022-07-29T10:20:24;3.50;;;3.20;;
20623;SDS011;10471;42.736;23.346;2022-07-29T10:22:51;4.18;;;3.78;;
20623;SDS011;10471;42.736;23.346;2022-07-29T10:25:17;3.90;;;3.45;;
20623;SDS011;10471;42.736;23.346;2022-07-29T10:27:44;3.88;;;3.55;;
20623;SDS011;10471;42.736;23.346;2022-07-29T10:30:12;3.88;;;3.45;;
20623;SDS011;10471;42.736;23.346;2022-07-29T10:44:03;3.97;;;3.35;;
20623;SDS011;10471;42.736;23.346;2022-07-29T10:46:35;4.85;;;3.88;;
20623;SDS011;10471;42.736;23.346;2022-07-29T10:54:15;6.35;;;3.80;;
20623;SDS011;10471;42.736;23.346;2022-07-29T11:05:11;4.18;;;3.88;;
20623;SDS011;10471;42.736;23.346;2022-07-29T11:07:39;4.80;;;4.30;;
20623;SDS011;10471;42.736;23.346;2022-07-29T11:10:24;4.57;;;4.15;;
20623;SDS011;10471;42.736;23.346;2022-07-29T11:12:50;4.82;;;4.32;;
20623;SDS011;10471;42.736;23.346;2022-07-29T11:15:20;4.68;;;4.28;;
20623;SDS011;10471;42.736;23.346;2022-07-29T11:18:04;7.72;;;4.10;;
20623;SDS011;10471;42.736;23.346;2022-07-29T11:20:38;9.57;;;8.63;;
20623;SDS011;10471;42.736;23.346;2022-07-29T11:23:22;4.60;;;4.13;;
20623;SDS011;10471;42.736;23.346;2022-07-29T11:39:40;5.50;;;5.00;;
20623;SDS011;10471;42.736;23.346;2022-07-29T11:47:36;5.40;;;4.90;;
20623;SDS011;10471;42.736;23.346;2022-07-29T11:50:03;5.95;;;5.30;;
20623;SDS011;10471;42.736;23.346;2022-07-29T11:55:07;5.47;;;4.97;;
20623;SDS011;10471;42.736;23.346;2022-07-29T11:57:35;8.40;;;5.10;;
20623;SDS011;10471;42.736;23.346;2022-07-29T12:00:01;5.40;;;4.90;;
20623;SDS011;10471;42.736;23.346;2022-07-29T12:02:37;6.82;;;5.15;;
20623;SDS011;10471;42.736;23.346;2022-07-29T12:05:06;5.47;;;4.97;;
20623;SDS011;10471;42.736;23.346;2022-07-29T12:07:33;5.28;;;4.72;;
20623;SDS011;10471;42.736;23.346;2022-07-29T12:09:59;5.88;;;5.38;;
20623;SDS011;10471;42.736;23.346;2022-07-29T12:12:25;5.30;;;4.80;;
20623;SDS011;10471;42.736;23.346;2022-07-29T12:14:51;6.43;;;5.43;;
20623;SDS011;10471;42.736;23.346;2022-07-29T12:17:26;5.82;;;5.15;;
20623;SDS011;10471;42.736;23.346;2022-07-29T12:19:57;6.22;;;5.30;;
20623;SDS011;10471;42.736;23.346;2022-07-29T12:22:27;6.13;;;5.53;;
20623;SDS011;10471;42.736;23.346;2022-07-29T12:25:05;6.80;;;5.55;;
20623;SDS011;10471;42.736;23.346;2022-07-29T12:27:35;5.95;;;5.32;;
20623;SDS011;10471;42.736;23.346;2022-07-29T12:30:05;6.13;;;5.63;;
20623;SDS011;10471;42.736;23.346;2022-07-29T12:32:35;6.50;;;5.90;;
20623;SDS011;10471;42.736;23.346;2022-07-29T12:35:05;6.38;;;5.65;;
20623;SDS011;10471;42.736;23.346;2022-07-29T12:37:34;6.60;;;6.00;;
20623;SDS011;10471;42.736;23.346;2022-07-29T12:40:02;6.45;;;5.90;;
20623;SDS011;10471;42.736;23.346;2022-07-29T12:42:29;10.13;;;6.15;;
20623;SDS011;10471;42.736;23.346;2022-07-29T12:44:54;6.28;;;5.70;;
20623;SDS011;10471;42.736;23.346;2022-07-29T12:47:20;6.93;;;6.30;;
20623;SDS011;10471;42.736;23.346;2022-07-29T12:49:46;7.70;;;6.88;;
20623;SDS011;10471;42.736;23.346;2022-07-29T12:52:32;6.93;;;6.28;;
20623;SDS011;10471;42.736;23.346;2022-07-29T12:54:59;6.70;;;6.20;;
20623;SDS011;10471;42.736;23.346;2022-07-29T12:57:24;7.10;;;6.15;;
20623;SDS011;10471;42.736;23.346;2022-07-29T13:02:26;7.20;;;6.50;;
20623;SDS011;10471;42.736;23.346;2022-07-29T13:04:58;7.07;;;6.32;;
20623;SDS011;10471;42.736;23.346;2022-07-29T13:07:28;6.85;;;6.15;;
20623;SDS011;10471;42.736;23.346;2022-07-29T13:10:14;7.70;;;6.07;;
20623;SDS011;10471;42.736;23.346;2022-07-29T13:13:02;7.25;;;6.28;;
20623;SDS011;10471;42.736;23.346;2022-07-29T13:15:34;6.70;;;6.10;;
20623;SDS011;10471;42.736;23.346;2022-07-29T13:18:01;7.97;;;7.20;;
20623;SDS011;10471;42.736;23.346;2022-07-29T13:20:28;6.85;;;6.25;;
20623;SDS011;10471;42.736;23.346;2022-07-29T13:22:55;7.32;;;6.72;;
20623;SDS011;10471;42.736;23.346;2022-07-29T13:25:28;6.72;;;6.13;;
20623;SDS011;10471;42.736;23.346;2022-07-29T13:27:56;7.22;;;5.78;;
20623;SDS011;10471;42.736;23.346;2022-07-29T13:30:22;7.00;;;5.68;;
20623;SDS011;10471;42.736;23.346;2022-07-29T13:32:48;6.32;;;5.75;;
20623;SDS011;10471;42.736;23.346;2022-07-29T13:35:14;6.40;;;5.80;;
20623;SDS011;10471;42.736;23.346;2022-07-29T13:37:39;6.78;;;6.18;;
20623;SDS011;10471;42.736;23.346;2022-07-29T13:40:05;7.63;;;6.28;;
20623;SDS011;10471;42.736;23.346;2022-07-29T13:42:33;6.68;;;5.95;;
20623;SDS011;10471;42.736;23.346;2022-07-29T13:44:58;5.97;;;5.32;;
20623;SDS011;10471;42.736;23.346;2022-07-29T13:47:25;7.50;;;5.93;;
20623;SDS011;10471;42.736;23.346;2022-07-29T13:49:51;6.55;;;6.00;;
20623;SDS011;10471;42.736;23.346;2022-07-29T13:52:18;6.53;;;5.72;;
20623;SDS011;10471;42.736;23.346;2022-07-29T13:54:44;6.35;;;5.70;;
20623;SDS011;10471;42.736;23.346;2022-07-29T13:57:09;6.40;;;5.90;;
20623;SDS011;10471;42.736;23.346;2022-07-29T13:59:36;6.63;;;5.60;;
20623;SDS011;10471;42.736;23.346;2022-07-29T14:02:02;7.40;;;6.25;;
20623;SDS011;10471;42.736;23.346;2022-07-29T14:04:28;8.98;;;5.85;;
20623;SDS011;10471;42.736;23.346;2022-07-29T14:06:53;6.63;;;6.03;;
20623;SDS011;10471;42.736;23.346;2022-07-29T14:09:19;6.25;;;5.65;;
20623;SDS011;10471;42.736;23.346;2022-07-29T14:11:44;6.35;;;5.85;;
20623;SDS011;10471;42.736;23.346;2022-07-29T14:14:10;7.43;;;6.13;;
20623;SDS011;10471;42.736;23.346;2022-07-29T14:16:36;5.85;;;5.32;;
20623;SDS011;10471;42.736;23.346;2022-07-29T14:19:02;7.40;;;6.18;;
20623;SDS011;10471;42.736;23.346;2022-07-29T14:21:28;6.90;;;6.20;;
20623;SDS011;10471;42.736;23.346;2022-07-29T14:23:53;6.70;;;5.90;;
20623;SDS011;10471;42.736;23.346;2022-07-29T14:26:19;6.80;;;6.20;;
20623;SDS011;10471;42.736;23.346;2022-07-29T14:28:45;6.82;;;6.18;;
20623;SDS011;10471;42.736;23.346;2022-07-29T14:31:11;6.70;;;6.20;;
20623;SDS011;10471;42.736;23.346;2022-07-29T14:33:36;7.85;;;6.30;;
20623;SDS011;10471;42.736;23.346;2022-07-29T14:36:02;6.90;;;6.22;;
20623;SDS011;10471;42.736;23.346;2022-07-29T14:38:28;7.03;;;6.35;;
20623;SDS011;10471;42.736;23.346;2022-07-29T14:40:53;7.30;;;6.60;;
20623;SDS011;10471;42.736;23.346;2022-07-29T14:43:18;6.88;;;6.38;;
20623;SDS011;10471;42.736;23.346;2022-07-29T14:45:44;7.50;;;6.80;;
20623;SDS011;10471;42.736;23.346;2022-07-29T14:48:09;7.32;;;6.60;;
20623;SDS011;10471;42.736;23.346;2022-07-29T14:50:36;6.35;;;5.80;;
20623;SDS011;10471;42.736;23.346;2022-07-29T14:53:02;6.68;;;6.18;;
20623;SDS011;10471;42.736;23.346;2022-07-29T14:55:27;7.25;;;6.65;;
20623;SDS011;10471;42.736;23.346;2022-07-29T14:57:53;6.38;;;5.82;;
20623;SDS011;10471;42.736;23.346;2022-07-29T15:00:19;7.03;;;6.30;;
20623;SDS011;10471;42.736;23.346;2022-07-29T15:02:45;6.55;;;5.80;;
20623;SDS011;10471;42.736;23.346;2022-07-29T15:05:11;7.03;;;6.15;;
20623;SDS011;10471;42.736;23.346;2022-07-29T15:07:37;6.80;;;6.20;;
20623;SDS011;10471;42.736;23.346;2022-07-29T15:10:02;7.60;;;6.15;;
20623;SDS011;10471;42.736;23.346;2022-07-29T15:12:29;7.43;;;6.00;;
20623;SDS011;10471;42.736;23.346;2022-07-29T15:14:55;7.05;;;6.40;;
20623;SDS011;10471;42.736;23.346;2022-07-29T15:17:21;6.75;;;6.05;;
20623;SDS011;10471;42.736;23.346;2022-07-29T15:19:46;7.65;;;6.15;;
20623;SDS011;10471;42.736;23.346;2022-07-29T15:22:11;6.65;;;6.10;;
20623;SDS011;10471;42.736;23.346;2022-07-29T15:24:37;8.52;;;6.85;;
20623;SDS011;10471;42.736;23.346;2022-07-29T15:27:02;7.70;;;6.43;;
20623;SDS011;10471;42.736;23.346;2022-07-29T15:29:28;10.15;;;7.85;;
20623;SDS011;10471;42.736;23.346;2022-07-29T15:31:53;6.45;;;5.85;;
20623;SDS011;10471;42.736;23.346;2022-07-29T15:34:19;6.88;;;6.15;;
20623;SDS011;10471;42.736;23.346;2022-07-29T15:36:46;6.20;;;5.55;;
20623;SDS011;10471;42.736;23.346;2022-07-29T15:39:11;7.40;;;6.70;;
20623;SDS011;10471;42.736;23.346;2022-07-29T15:41:37;6.57;;;5.97;;
20623;SDS011;10471;42.736;23.346;2022-07-29T15:44:02;7.95;;;5.88;;